createdAt,value
2023-02-27T00:00:52.425Z,102294.25
2023-02-27T00:03:19.228Z,102289.81
2023-02-27T00:05:45.929Z,102288.03
2023-02-27T00:08:12.674Z,102291.78
2023-02-27T00:10:39.450Z,102292.69
2023-02-27T00:13:06.303Z,102293.56
2023-02-27T00:15:33.653Z,102296.94
2023-02-27T00:18:02.834Z,102304.19
2023-02-27T00:20:29.859Z,102298.88
2023-02-27T00:22:56.644Z,102302.22
2023-02-27T00:25:23.374Z,102303.31
2023-02-27T00:27:50.111Z,102307.59
2023-02-27T00:30:17.003Z,102297.66
2023-02-27T00:32:44.061Z,102299.22
2023-02-27T00:35:11.986Z,102297.66
2023-02-27T00:37:39.687Z,102303.53
2023-02-27T00:40:07.726Z,102289.47
2023-02-27T00:42:34.791Z,102292.19
2023-02-27T00:45:01.526Z,102299.94
2023-02-27T00:47:28.366Z,102305.53
2023-02-27T00:49:55.071Z,102303.00
2023-02-27T00:52:21.891Z,102304.13
2023-02-27T00:54:48.567Z,102299.09
2023-02-27T00:57:15.479Z,102307.88
2023-02-27T00:59:42.661Z,102303.53
2023-02-27T01:02:09.422Z,102310.22
2023-02-27T01:04:36.561Z,102300.97
2023-02-27T01:07:03.681Z,102301.84
2023-02-27T01:09:30.460Z,102300.28
2023-02-27T01:11:57.525Z,102313.38
2023-02-27T01:14:24.030Z,102303.44
2023-02-27T01:16:50.527Z,102298.47
2023-02-27T01:19:17.114Z,102300.97
2023-02-27T01:21:43.953Z,102296.22
2023-02-27T01:24:11.272Z,102293.88
2023-02-27T01:26:37.807Z,102289.84
2023-02-27T01:29:06.483Z,102291.59
2023-02-27T01:31:33.626Z,102281.16
2023-02-27T01:34:00.235Z,102281.38
2023-02-27T01:36:26.752Z,102287.03
2023-02-27T01:38:53.308Z,102286.66
2023-02-27T01:41:19.787Z,102285.84
2023-02-27T01:44:00.026Z,102287.75
2023-02-27T01:46:28.079Z,102282.03
2023-02-27T01:48:59.572Z,102289.78
2023-02-27T01:51:30.134Z,102291.47
2023-02-27T01:53:57.592Z,102283.06
2023-02-27T01:56:28.770Z,102280.38
2023-02-27T01:59:01.070Z,102275.22
2023-02-27T02:01:29.346Z,102282.16
2023-02-27T02:04:04.957Z,102290.00
2023-02-27T02:06:34.616Z,102282.75
2023-02-27T02:09:01.851Z,102290.59
2023-02-27T02:11:28.966Z,102285.81
2023-02-27T02:14:02.544Z,102285.34
2023-02-27T02:16:54.833Z,102282.84
2023-02-27T02:19:53.166Z,102284.41
2023-02-27T02:26:29.278Z,102288.19
2023-02-27T02:29:04.946Z,102283.16
2023-02-27T02:31:47.162Z,102286.03
2023-02-27T02:34:36.934Z,102288.25
2023-02-27T02:37:44.613Z,102289.94
2023-02-27T02:40:48.283Z,102289.84
2023-02-27T02:43:34.760Z,102292.44
2023-02-27T02:46:22.012Z,102293.59
2023-02-27T02:49:03.926Z,102296.78
2023-02-27T02:51:53.324Z,102290.06
2023-02-27T02:54:42.401Z,102291.53
2023-02-27T02:57:19.429Z,102291.03
2023-02-27T03:00:02.511Z,102296.00
2023-02-27T03:02:34.916Z,102298.78
2023-02-27T03:05:05.019Z,102297.97
2023-02-27T03:07:47.780Z,102290.44
2023-02-27T03:10:35.324Z,102293.53
2023-02-27T03:13:12.058Z,102299.47
2023-02-27T03:15:49.822Z,102299.06
2023-02-27T03:18:21.113Z,102293.72
2023-02-27T03:21:10.460Z,102290.94
2023-02-27T03:23:43.889Z,102309.38
2023-02-27T03:26:14.011Z,102311.94
2023-02-27T03:29:06.334Z,102308.84
2023-02-27T03:31:47.519Z,102317.69
2023-02-27T03:34:24.190Z,102313.44
2023-02-27T03:37:17.276Z,102317.28
2023-02-27T03:39:51.603Z,102314.22
2023-02-27T03:42:33.021Z,102318.97
2023-02-27T03:45:15.105Z,102317.84
2023-02-27T03:47:41.836Z,102320.06
2023-02-27T03:50:09.101Z,102318.47
2023-02-27T03:52:35.773Z,102311.31
2023-02-27T03:55:11.437Z,102320.88
2023-02-27T03:57:38.338Z,102318.84
2023-02-27T04:00:07.012Z,102331.19
2023-02-27T04:02:34.571Z,102326.72
2023-02-27T04:05:01.098Z,102324.03
2023-02-27T04:07:46.415Z,102330.56
2023-02-27T04:10:24.550Z,102334.22
2023-02-27T04:13:21.599Z,102333.84
2023-02-27T04:16:25.712Z,102337.69
2023-02-27T04:19:10.871Z,102341.06
2023-02-27T04:21:56.343Z,102343.03
2023-02-27T04:24:52.474Z,102352.50
2023-02-27T04:27:55.451Z,102359.72
2023-02-27T04:30:37.603Z,102361.38
2023-02-27T04:33:42.843Z,102371.84
2023-02-27T04:36:19.438Z,102361.53
2023-02-27T04:39:00.913Z,102361.53
2023-02-27T04:41:46.511Z,102361.75
2023-02-27T04:44:15.913Z,102360.16
2023-02-27T04:46:45.122Z,102365.34
2023-02-27T04:49:29.065Z,102365.13
2023-02-27T04:52:12.745Z,102362.03
2023-02-27T04:54:52.589Z,102369.34
2023-02-27T04:57:25.334Z,102369.22
2023-02-27T04:59:55.869Z,102368.50
2023-02-27T05:02:28.110Z,102372.09
2023-02-27T05:04:59.129Z,102380.16
2023-02-27T05:07:31.298Z,102374.69
2023-02-27T05:10:14.859Z,102370.16
2023-02-27T05:12:48.237Z,102376.19
2023-02-27T05:15:24.009Z,102384.34
2023-02-27T05:18:05.171Z,102379.25
2023-02-27T05:20:41.792Z,102384.09
2023-02-27T05:23:20.841Z,102374.94
2023-02-27T05:25:59.245Z,102378.31
2023-02-27T05:28:39.819Z,102382.78
2023-02-27T05:31:15.772Z,102388.88
2023-02-27T05:34:00.944Z,102379.72
2023-02-27T05:36:38.160Z,102382.50
2023-02-27T05:39:09.009Z,102380.03
2023-02-27T05:41:50.593Z,102387.66
2023-02-27T05:44:21.269Z,102386.09
2023-02-27T05:46:56.053Z,102383.41
2023-02-27T05:49:33.591Z,102391.78
2023-02-27T05:52:04.492Z,102398.88
2023-02-27T05:54:34.317Z,102402.09
2023-02-27T05:57:04.404Z,102400.78
2023-02-27T06:00:06.343Z,102394.44
2023-02-27T06:02:33.277Z,102403.22
2023-02-27T06:05:00.028Z,102396.41
2023-02-27T06:07:26.713Z,102401.28
2023-02-27T06:09:53.594Z,102410.91
2023-02-27T06:12:20.327Z,102406.19
2023-02-27T06:14:47.046Z,102414.97
2023-02-27T06:17:13.877Z,102411.19
2023-02-27T06:19:40.572Z,102413.44
2023-02-27T06:22:07.224Z,102421.78
2023-02-27T06:24:33.896Z,102420.41
2023-02-27T06:27:00.542Z,102420.69
2023-02-27T06:29:27.381Z,102427.50
2023-02-27T06:31:54.150Z,102431.13
2023-02-27T06:34:20.880Z,102433.31
2023-02-27T06:36:48.564Z,102437.13
2023-02-27T06:39:15.549Z,102432.81
2023-02-27T06:41:42.239Z,102442.63
2023-02-27T06:44:08.937Z,102435.63
2023-02-27T06:46:35.616Z,102436.72
2023-02-27T06:49:02.313Z,102438.53
2023-02-27T06:51:28.972Z,102429.50
2023-02-27T06:53:55.674Z,102440.72
2023-02-27T06:56:22.363Z,102433.22
2023-02-27T06:58:49.148Z,102432.94
2023-02-27T07:01:16.114Z,102439.63
2023-02-27T07:03:42.805Z,102431.91
2023-02-27T07:06:10.849Z,102434.53
2023-02-27T07:08:37.617Z,102433.38
2023-02-27T07:11:24.262Z,102444.56
2023-02-27T07:13:50.902Z,102453.38
2023-02-27T07:16:17.638Z,102452.72
2023-02-27T07:18:44.362Z,102452.72
2023-02-27T07:21:11.058Z,102456.28
2023-02-27T07:23:38.231Z,102454.22
2023-02-27T07:26:05.431Z,102458.91
2023-02-27T07:28:32.271Z,102466.47
2023-02-27T07:30:59.329Z,102457.59
2023-02-27T07:33:26.223Z,102450.06
2023-02-27T07:35:53.005Z,102460.31
2023-02-27T07:38:22.296Z,102464.00
2023-02-27T07:40:48.985Z,102469.78
2023-02-27T07:43:15.670Z,102473.09
2023-02-27T07:45:42.565Z,102477.25
2023-02-27T07:48:09.213Z,102483.25
2023-02-27T07:50:35.914Z,102478.19
2023-02-27T07:53:02.753Z,102472.25
2023-02-27T07:55:29.414Z,102477.34
2023-02-27T07:57:56.107Z,102473.56
2023-02-27T08:00:22.785Z,102479.22
2023-02-27T08:02:49.510Z,102477.25
2023-02-27T08:05:16.262Z,102478.66
2023-02-27T08:07:43.016Z,102475.38
2023-02-27T08:10:10.493Z,102474.59
2023-02-27T08:12:37.160Z,102483.00
2023-02-27T08:15:04.207Z,102479.34
2023-02-27T08:17:30.993Z,102480.81
2023-02-27T08:19:57.648Z,102480.03
2023-02-27T08:22:24.339Z,102481.50
2023-02-27T08:24:51.009Z,102478.00
2023-02-27T08:27:17.666Z,102481.28
2023-02-27T08:29:45.514Z,102483.16
2023-02-27T08:32:12.204Z,102479.13
2023-02-27T08:34:39.008Z,102487.59
2023-02-27T08:37:05.737Z,102484.28
2023-02-27T08:39:32.465Z,102486.13
2023-02-27T08:41:59.192Z,102477.34
2023-02-27T08:44:25.820Z,102482.72
2023-02-27T08:46:52.541Z,102480.13
2023-02-27T08:49:21.692Z,102481.63
2023-02-27T08:51:48.494Z,102483.34
2023-02-27T08:54:15.119Z,102482.75
2023-02-27T08:56:41.826Z,102482.97
2023-02-27T08:59:08.545Z,102485.91
2023-02-27T09:01:35.500Z,102489.53
2023-02-27T09:04:03.839Z,102491.50
2023-02-27T09:06:31.898Z,102494.38
2023-02-27T09:08:59.176Z,102497.63
2023-02-27T09:11:26.685Z,102490.31
2023-02-27T09:13:54.321Z,102502.97
2023-02-27T09:16:22.225Z,102506.72
2023-02-27T09:18:49.832Z,102507.78
2023-02-27T09:21:17.323Z,102505.06
2023-02-27T09:23:43.984Z,102507.75
2023-02-27T09:26:10.821Z,102509.38
2023-02-27T09:28:39.986Z,102511.88
2023-02-27T09:31:07.965Z,102510.56
2023-02-27T09:33:37.182Z,102511.81
2023-02-27T09:36:05.645Z,102510.72
2023-02-27T09:38:34.440Z,102511.22
2023-02-27T09:41:01.300Z,102507.25
2023-02-27T09:43:43.863Z,102503.50
2023-02-27T09:46:17.857Z,102497.56
2023-02-27T09:48:51.868Z,102505.72
2023-02-27T09:51:19.667Z,102499.56
2023-02-27T09:53:49.035Z,102491.63
2023-02-27T09:56:22.344Z,102490.69
2023-02-27T09:59:05.229Z,102489.22
2023-02-27T10:01:47.950Z,102490.78
2023-02-27T10:04:36.992Z,102493.97
2023-02-27T10:07:39.302Z,102499.41
2023-02-27T10:10:19.928Z,102499.84
2023-02-27T10:13:09.480Z,102500.63
2023-02-27T10:15:46.765Z,102506.09
2023-02-27T10:18:27.030Z,102497.47
2023-02-27T10:21:02.699Z,102494.38
2023-02-27T10:23:49.359Z,102501.50
2023-02-27T10:26:20.450Z,102501.50
2023-02-27T10:28:47.660Z,102504.50
2023-02-27T10:31:21.136Z,102500.13
2023-02-27T10:33:48.659Z,102506.69
2023-02-27T10:36:32.693Z,102506.88
2023-02-27T10:39:04.927Z,102507.19
2023-02-27T10:41:31.614Z,102511.81
2023-02-27T10:44:00.171Z,102519.25
2023-02-27T10:46:32.594Z,102516.84
2023-02-27T10:49:01.685Z,102511.91
2023-02-27T10:51:31.483Z,102510.34
2023-02-27T10:54:14.737Z,102518.72
2023-02-27T10:56:45.699Z,102515.06
2023-02-27T10:59:23.194Z,102512.78
2023-02-27T11:02:00.400Z,102513.56
2023-02-27T11:04:40.602Z,102513.06
2023-02-27T11:07:11.524Z,102518.69
2023-02-27T11:09:38.588Z,102520.72
2023-02-27T11:12:32.705Z,102522.28
2023-02-27T11:15:01.916Z,102513.28
2023-02-27T11:17:32.265Z,102519.25
2023-02-27T11:20:01.069Z,102520.59
2023-02-27T11:22:30.554Z,102522.13
2023-02-27T11:25:22.939Z,102532.47
2023-02-27T11:27:51.982Z,102522.03
2023-02-27T11:30:27.254Z,102516.75
2023-02-27T11:32:57.383Z,102514.13
2023-02-27T11:35:31.442Z,102518.56
2023-02-27T11:38:04.868Z,102513.94
2023-02-27T11:40:40.458Z,102503.44
2023-02-27T11:43:35.364Z,102511.72
2023-02-27T11:46:28.842Z,102514.69
2023-02-27T11:49:22.365Z,102501.34
2023-02-27T11:51:52.281Z,102501.81
2023-02-27T11:54:34.553Z,102500.31
2023-02-27T11:57:07.600Z,102503.53
2023-02-27T11:59:49.583Z,102504.13
2023-02-27T12:02:31.059Z,102512.13
2023-02-27T12:05:07.283Z,102509.59
2023-02-27T12:07:57.638Z,102505.63
2023-02-27T12:10:31.936Z,102500.44
2023-02-27T12:13:01.935Z,102488.31
2023-02-27T12:15:44.257Z,102488.16
2023-02-27T12:18:10.916Z,102493.78
2023-02-27T12:20:54.677Z,102484.31
2023-02-27T12:23:35.288Z,102485.03
2023-02-27T12:26:08.167Z,102488.59
2023-02-27T12:28:50.333Z,102477.66
2023-02-27T12:31:32.507Z,102482.53
2023-02-27T12:34:23.508Z,102473.66
2023-02-27T12:36:52.536Z,102489.19
2023-02-27T12:39:23.103Z,102487.09
2023-02-27T12:42:09.476Z,102498.81
2023-02-27T12:44:45.425Z,102495.69
2023-02-27T12:47:30.835Z,102496.88
2023-02-27T12:50:06.523Z,102498.59
2023-02-27T12:53:08.683Z,102499.38
2023-02-27T12:55:44.959Z,102485.75
2023-02-27T12:58:24.809Z,102478.03
2023-02-27T13:00:59.831Z,102481.34
2023-02-27T13:03:39.720Z,102482.25
2023-02-27T13:06:24.490Z,102476.03
2023-02-27T13:09:02.429Z,102478.09
2023-02-27T13:11:53.857Z,102479.16
2023-02-27T13:14:56.742Z,102481.94
2023-02-27T13:18:01.921Z,102470.69
2023-02-27T13:20:35.569Z,102478.34
2023-02-27T13:23:19.412Z,102480.13
2023-02-27T13:25:51.006Z,102474.66
2023-02-27T13:28:23.386Z,102476.88
2023-02-27T13:31:06.180Z,102473.91
2023-02-27T13:33:48.461Z,102471.38
2023-02-27T13:36:23.876Z,102471.53
2023-02-27T13:38:55.587Z,102472.13
2023-02-27T13:41:25.244Z,102470.66
2023-02-27T13:43:53.391Z,102469.19
2023-02-27T13:46:28.927Z,102479.09
2023-02-27T13:49:04.817Z,102481.91
2023-02-27T13:51:43.789Z,102482.94
2023-02-27T13:54:13.385Z,102478.94
2023-02-27T13:56:49.069Z,102474.06
2023-02-27T13:59:25.203Z,102477.78
2023-02-27T14:01:56.152Z,102460.59
2023-02-27T14:04:26.289Z,102478.81
2023-02-27T14:07:09.488Z,102485.78
2023-02-27T14:09:41.585Z,102483.41
2023-02-27T14:12:42.618Z,102488.59
2023-02-27T14:15:23.713Z,102492.00
2023-02-27T14:17:59.605Z,102489.34
2023-02-27T14:20:39.617Z,102484.16
2023-02-27T14:23:22.560Z,102483.72
2023-02-27T14:26:16.321Z,102485.03
2023-02-27T14:28:56.364Z,102485.34
2023-02-27T14:31:28.171Z,102496.00
2023-02-27T14:33:59.005Z,102489.47
2023-02-27T14:36:28.809Z,102496.09
2023-02-27T14:38:59.065Z,102491.66
2023-02-27T14:41:38.037Z,102493.13
2023-02-27T14:44:05.281Z,102492.25
2023-02-27T14:46:38.316Z,102494.91
2023-02-27T14:49:19.297Z,102487.38
2023-02-27T14:51:46.132Z,102490.19
2023-02-27T14:54:22.472Z,102494.03
2023-02-27T14:57:04.179Z,102494.19
2023-02-27T14:59:34.005Z,102503.53
2023-02-27T15:02:04.166Z,102499.22
2023-02-27T15:04:33.061Z,102498.19
2023-02-27T15:07:00.410Z,102505.56
2023-02-27T15:09:37.520Z,102500.84
2023-02-27T15:12:05.054Z,102502.63
2023-02-27T15:14:38.575Z,102504.41
2023-02-27T15:17:23.121Z,102501.03
2023-02-27T15:19:55.610Z,102499.69
2023-02-27T15:22:38.162Z,102501.00
2023-02-27T15:25:07.643Z,102493.47
2023-02-27T15:27:37.022Z,102493.19
2023-02-27T15:30:04.788Z,102499.69
2023-02-27T15:32:37.915Z,102498.94
2023-02-27T15:35:14.814Z,102493.03
2023-02-27T15:38:03.838Z,102495.53
2023-02-27T15:40:33.079Z,102493.03
2023-02-27T15:43:01.138Z,102491.97
2023-02-27T15:45:31.985Z,102500.56
2023-02-27T15:47:59.131Z,102495.25
2023-02-27T15:50:31.303Z,102500.13
2023-02-27T15:53:11.317Z,102502.50
2023-02-27T15:55:40.998Z,102510.78
2023-02-27T15:58:19.803Z,102507.22
2023-02-27T16:00:46.872Z,102504.53
2023-02-27T16:03:22.118Z,102506.94
2023-02-27T16:05:52.311Z,102512.56
2023-02-27T16:08:21.054Z,102513.88
2023-02-27T16:10:48.285Z,102512.66
2023-02-27T16:13:54.175Z,102508.09
2023-02-27T16:16:31.623Z,102510.28
2023-02-27T16:19:00.276Z,102508.19
2023-02-27T16:21:31.053Z,102513.22
2023-02-27T16:24:18.720Z,102517.97
2023-02-27T16:26:51.223Z,102516.19
2023-02-27T16:29:20.511Z,102518.56
2023-02-27T16:31:53.526Z,102520.03
2023-02-27T16:34:45.437Z,102521.50
2023-02-27T16:37:20.774Z,102528.16
2023-02-27T16:39:49.312Z,102526.34
2023-02-27T16:42:15.983Z,102539.69
2023-02-27T16:44:42.660Z,102534.50
2023-02-27T16:47:09.516Z,102531.50
2023-02-27T16:49:36.477Z,102526.31
2023-02-27T16:52:03.851Z,102516.72
2023-02-27T16:54:48.787Z,102531.47
2023-02-27T16:57:17.603Z,102524.34
2023-02-27T16:59:44.449Z,102522.41
2023-02-27T17:06:13.821Z,102521.94
2023-02-27T17:08:44.394Z,102526.50
2023-02-27T17:11:11.370Z,102528.31
2023-02-27T17:13:38.182Z,102519.84
2023-02-27T17:16:06.121Z,102529.78
2023-02-27T17:18:33.966Z,102528.72
2023-02-27T17:21:02.021Z,102530.19
2023-02-27T17:23:28.668Z,102522.00
2023-02-27T17:25:55.410Z,102527.31
2023-02-27T17:28:22.937Z,102528.31
2023-02-27T17:30:50.290Z,102520.84
2023-02-27T17:33:17.212Z,102520.81
2023-02-27T17:35:43.880Z,102522.22
2023-02-27T17:38:10.561Z,102532.03
2023-02-27T17:40:39.174Z,102528.38
2023-02-27T17:43:06.110Z,102525.19
2023-02-27T17:45:32.977Z,102523.88
2023-02-27T17:47:59.731Z,102527.44
2023-02-27T17:50:26.610Z,102528.50
2023-02-27T17:52:53.285Z,102522.56
2023-02-27T17:55:19.981Z,102528.63
2023-02-27T17:57:46.646Z,102529.03
2023-02-27T18:00:15.135Z,102530.97
2023-02-27T18:02:44.308Z,102540.13
2023-02-27T18:05:11.319Z,102531.94
2023-02-27T18:07:38.070Z,102542.75
2023-02-27T18:10:06.529Z,102545.47
2023-02-27T18:12:33.174Z,102546.59
2023-02-27T18:14:59.972Z,102540.19
2023-02-27T18:17:26.923Z,102546.44
2023-02-27T18:19:54.275Z,102542.00
2023-02-27T18:22:22.017Z,102544.31
2023-02-27T18:24:51.640Z,102537.03
2023-02-27T18:27:18.283Z,102539.41
2023-02-27T18:29:44.937Z,102536.59
2023-02-27T18:32:12.570Z,102545.56
2023-02-27T18:34:40.885Z,102546.66
2023-02-27T18:37:07.614Z,102539.19
2023-02-27T18:39:34.289Z,102540.28
2023-02-27T18:42:00.951Z,102545.84
2023-02-27T18:44:27.664Z,102555.16
2023-02-27T18:46:54.936Z,102555.53
2023-02-27T18:49:21.720Z,102548.22
2023-02-27T18:51:48.936Z,102552.91
2023-02-27T18:54:15.628Z,102556.13
2023-02-27T18:56:42.258Z,102552.19
2023-02-27T18:59:08.965Z,102560.59
2023-02-27T19:01:38.177Z,102560.59
2023-02-27T19:04:06.599Z,102565.97
2023-02-27T19:06:35.665Z,102567.38
2023-02-27T19:09:06.760Z,102560.09
2023-02-27T19:11:33.760Z,102571.13
2023-02-27T19:14:01.585Z,102573.84
2023-02-27T19:16:28.691Z,102567.94
2023-02-27T19:18:59.874Z,102576.69
2023-02-27T19:21:28.713Z,102583.13
2023-02-27T19:23:55.490Z,102589.75
2023-02-27T19:26:24.145Z,102580.44
2023-02-27T19:28:53.549Z,102592.94
2023-02-27T19:31:22.132Z,102598.81
2023-02-27T19:33:49.376Z,102602.25
2023-02-27T19:36:18.190Z,102587.94
2023-02-27T19:38:44.833Z,102584.75
2023-02-27T19:41:14.504Z,102588.66
2023-02-27T19:43:41.405Z,102590.78
2023-02-27T19:46:14.299Z,102595.63
2023-02-27T19:48:41.309Z,102581.88
2023-02-27T19:51:10.762Z,102585.78
2023-02-27T19:53:39.301Z,102589.38
2023-02-27T19:56:15.203Z,102594.38
2023-02-27T19:58:42.268Z,102596.13
2023-02-27T20:01:09.990Z,102589.72
2023-02-27T20:03:37.642Z,102584.91
2023-02-27T20:06:09.054Z,102591.72
2023-02-27T20:08:35.721Z,102589.72
2023-02-27T20:11:04.779Z,102591.16
2023-02-27T20:13:31.776Z,102596.50
2023-02-27T20:16:01.183Z,102597.59
2023-02-27T20:18:29.865Z,102599.34
2023-02-27T20:21:11.482Z,102595.28
2023-02-27T20:23:40.386Z,102601.34
2023-02-27T20:26:25.206Z,102599.19
2023-02-27T20:28:53.598Z,102594.88
2023-02-27T20:31:23.285Z,102600.81
2023-02-27T20:33:50.350Z,102596.88
2023-02-27T20:36:17.432Z,102591.88
2023-02-27T20:38:44.730Z,102594.91
2023-02-27T20:41:14.400Z,102596.69
2023-02-27T20:43:43.164Z,102595.81
2023-02-27T20:46:13.487Z,102590.81
2023-02-27T20:48:40.488Z,102597.56
2023-02-27T20:51:24.539Z,102597.41
2023-02-27T20:53:53.984Z,102595.81
2023-02-27T20:56:22.741Z,102598.50
2023-02-27T20:58:49.992Z,102603.66
2023-02-27T21:01:18.210Z,102594.56
2023-02-27T21:03:46.584Z,102602.94
2023-02-27T21:06:15.739Z,102606.34
2023-02-27T21:08:45.807Z,102601.88
2023-02-27T21:11:18.523Z,102602.75
2023-02-27T21:13:48.094Z,102598.13
2023-02-27T21:16:16.377Z,102599.19
2023-02-27T21:18:44.033Z,102600.81
2023-02-27T21:21:16.017Z,102600.81
2023-02-27T21:23:43.520Z,102601.00
2023-02-27T21:26:15.739Z,102594.00
2023-02-27T21:28:47.589Z,102601.00
2023-02-27T21:31:15.661Z,102608.50
2023-02-27T21:33:43.057Z,102607.94
2023-02-27T21:36:10.780Z,102616.34
2023-02-27T21:38:38.628Z,102608.28
2023-02-27T21:41:11.798Z,102606.88
2023-02-27T21:43:40.318Z,102604.03
2023-02-27T21:46:09.169Z,102607.75
2023-02-27T21:48:36.300Z,102610.25
2023-02-27T21:51:03.736Z,102610.44
2023-02-27T21:53:30.716Z,102605.25
2023-02-27T21:56:05.763Z,102609.91
2023-02-27T21:58:33.561Z,102606.72
2023-02-27T22:01:00.549Z,102604.00
2023-02-27T22:03:34.262Z,102604.72
2023-02-27T22:06:02.142Z,102602.06
2023-02-27T22:08:28.840Z,102608.81
2023-02-27T22:11:00.062Z,102616.53
2023-02-27T22:13:27.344Z,102612.41
2023-02-27T22:15:54.367Z,102614.91
2023-02-27T22:18:21.051Z,102614.91
2023-02-27T22:20:47.926Z,102601.31
2023-02-27T22:23:14.815Z,102609.00
2023-02-27T22:25:41.510Z,102612.41
2023-02-27T22:28:08.253Z,102610.97
2023-02-27T22:30:34.921Z,102611.16
2023-02-27T22:33:01.669Z,102609.53
2023-02-27T22:35:28.393Z,102610.97
2023-02-27T22:37:55.187Z,102605.78
2023-02-27T22:40:21.913Z,102606.31
2023-02-27T22:42:48.544Z,102604.56
2023-02-27T22:45:15.308Z,102606.69
2023-02-27T22:47:42.055Z,102609.03
2023-02-27T22:50:09.388Z,102600.44
2023-02-27T22:52:36.683Z,102604.38
2023-02-27T22:55:03.549Z,102604.00
2023-02-27T22:57:30.225Z,102602.78
2023-02-27T22:59:56.844Z,102606.50
2023-02-27T23:02:23.475Z,102607.94
2023-02-27T23:04:50.173Z,102606.34
2023-02-27T23:07:16.844Z,102616.16
2023-02-27T23:09:43.923Z,102617.03
2023-02-27T23:12:10.558Z,102612.78
2023-02-27T23:14:37.292Z,102619.34
2023-02-27T23:17:03.914Z,102614.19
2023-02-27T23:19:32.255Z,102616.69
2023-02-27T23:21:58.932Z,102619.00
2023-02-27T23:24:25.568Z,102624.75
2023-02-27T23:26:53.059Z,102618.81
2023-02-27T23:29:20.292Z,102627.94
2023-02-27T23:31:47.937Z,102624.56
2023-02-27T23:34:14.679Z,102630.63
2023-02-27T23:36:41.339Z,102628.81
2023-02-27T23:39:08.508Z,102623.81
2023-02-27T23:41:35.426Z,102620.09
2023-02-27T23:44:02.311Z,102624.00
2023-02-27T23:46:30.318Z,102626.13
2023-02-27T23:49:01.721Z,102622.59
2023-02-27T23:51:30.621Z,102624.16
2023-02-27T23:53:58.126Z,102622.56
2023-02-27T23:56:27.678Z,102624.69
2023-02-27T23:59:03.445Z,102631.31
